createdAt,value
2022-09-23T00:02:03.671Z,85457.00
2022-09-23T00:04:33.000Z,85458.00
2022-09-23T00:07:02.492Z,85457.80
2022-09-23T00:09:31.893Z,85452.40
2022-09-23T00:12:03.750Z,85455.20
2022-09-23T00:14:36.080Z,85463.20
2022-09-23T00:17:05.357Z,85460.40
2022-09-23T00:19:35.003Z,85466.20
2022-09-23T00:22:04.407Z,85468.00
2022-09-23T00:24:33.645Z,85464.80
2022-09-23T00:27:03.007Z,85469.60
2022-09-23T00:29:32.973Z,85469.40
2022-09-23T00:32:02.539Z,85475.20
2022-09-23T00:34:32.005Z,85470.60
2022-09-23T00:37:01.251Z,85471.40
2022-09-23T00:39:30.454Z,85474.40
2022-09-23T00:41:59.802Z,85480.80
2022-09-23T00:44:51.709Z,85481.60
2022-09-23T00:47:30.403Z,85485.20
2022-09-23T00:50:22.608Z,85481.60
2022-09-23T00:52:56.435Z,85485.40
2022-09-23T00:55:36.268Z,85488.00
2022-09-23T00:58:12.076Z,85491.20
2022-09-23T01:00:41.719Z,85493.00
2022-09-23T01:03:13.061Z,85495.80
2022-09-23T01:05:44.078Z,85495.40
2022-09-23T01:08:15.796Z,85496.60
2022-09-23T01:11:02.647Z,85497.40
2022-09-23T01:13:40.179Z,85501.20
2022-09-23T01:16:47.258Z,85499.20
2022-09-23T01:20:21.586Z,85505.40
2022-09-23T01:23:15.463Z,85515.80
2022-09-23T01:26:23.996Z,85513.80
2022-09-23T01:29:39.845Z,85511.60
2022-09-23T01:32:55.272Z,85515.20
2022-09-23T01:35:45.868Z,85521.60
2022-09-23T01:38:43.404Z,85527.00
2022-09-23T01:41:53.301Z,85530.20
2022-09-23T01:44:44.745Z,85527.40
2022-09-23T01:47:45.285Z,85530.20
2022-09-23T01:50:56.163Z,85534.20
2022-09-23T01:53:39.720Z,85539.60
2022-09-23T01:56:44.613Z,85542.20
2022-09-23T01:59:38.355Z,85547.40
2022-09-23T02:02:29.574Z,85546.60
2022-09-23T02:05:21.161Z,85548.20
2022-09-23T02:08:11.371Z,85554.20
2022-09-23T02:10:50.566Z,85558.20
2022-09-23T02:13:35.933Z,85561.00
2022-09-23T02:16:21.254Z,85564.00
2022-09-23T02:18:59.313Z,85568.20
2022-09-23T02:21:37.218Z,85568.20
2022-09-23T02:24:21.520Z,85571.80
2022-09-23T02:27:42.695Z,85573.20
2022-09-23T02:30:28.288Z,85580.00
2022-09-23T02:33:06.760Z,85586.40
2022-09-23T02:35:52.897Z,85589.60
2022-09-23T02:38:48.245Z,85589.20
2022-09-23T02:41:51.174Z,85590.20
2022-09-23T02:44:24.691Z,85593.40
2022-09-23T02:46:54.382Z,85597.60
2022-09-23T02:49:32.580Z,85597.40
2022-09-23T02:52:06.780Z,85600.40
2022-09-23T02:54:38.305Z,85602.00
2022-09-23T02:57:09.587Z,85604.80
2022-09-23T02:59:40.237Z,85610.40
2022-09-23T03:02:45.873Z,85610.00
2022-09-23T03:05:34.598Z,85611.80
2022-09-23T03:08:20.471Z,85612.60
2022-09-23T03:11:05.761Z,85613.40
2022-09-23T03:14:07.969Z,85618.60
2022-09-23T03:16:49.275Z,85623.40
2022-09-23T03:19:49.532Z,85629.80
2022-09-23T03:22:40.653Z,85636.40
2022-09-23T03:25:16.986Z,85638.40
2022-09-23T03:27:47.756Z,85635.80
2022-09-23T03:30:17.414Z,85642.60
2022-09-23T03:32:48.579Z,85644.60
2022-09-23T03:35:18.693Z,85647.00
2022-09-23T03:38:05.298Z,85659.20
2022-09-23T03:40:42.901Z,85666.40
2022-09-23T03:43:14.674Z,85670.20
2022-09-23T03:45:43.959Z,85675.20
2022-09-23T03:48:14.835Z,85675.60
2022-09-23T03:50:45.587Z,85686.80
2022-09-23T03:53:15.553Z,85685.80
2022-09-23T03:55:44.826Z,85685.60
2022-09-23T03:58:14.128Z,85684.80
2022-09-23T04:00:44.524Z,85689.40
2022-09-23T04:03:13.508Z,85686.00
2022-09-23T04:05:42.650Z,85690.00
2022-09-23T04:08:11.900Z,85699.40
2022-09-23T04:10:43.702Z,85700.60
2022-09-23T04:13:13.411Z,85700.20
2022-09-23T04:15:43.071Z,85705.40
2022-09-23T04:18:12.189Z,85714.00
2022-09-23T04:20:41.898Z,85721.80
2022-09-23T04:23:11.109Z,85725.20
2022-09-23T04:25:50.407Z,85726.00
2022-09-23T04:28:19.420Z,85729.60
2022-09-23T04:30:49.919Z,85734.20
2022-09-23T04:33:20.100Z,85733.00
2022-09-23T04:35:53.918Z,85730.80
2022-09-23T04:38:24.098Z,85730.80
2022-09-23T04:40:53.509Z,85734.60
2022-09-23T04:43:24.497Z,85738.20
2022-09-23T04:46:05.474Z,85742.20
2022-09-23T04:48:40.696Z,85745.20
2022-09-23T04:51:14.914Z,85750.20
2022-09-23T04:53:47.558Z,85755.40
2022-09-23T04:56:20.028Z,85752.40
2022-09-23T04:58:50.413Z,85754.80
2022-09-23T05:01:27.636Z,85753.60
2022-09-23T05:04:03.501Z,85751.80
2022-09-23T05:06:36.006Z,85752.20
2022-09-23T05:09:09.530Z,85760.00
2022-09-23T05:11:38.638Z,85756.00
2022-09-23T05:14:07.555Z,85758.20
2022-09-23T05:16:37.362Z,85757.20
2022-09-23T05:19:06.864Z,85762.00
2022-09-23T05:21:38.822Z,85769.60
2022-09-23T05:24:08.410Z,85769.00
2022-09-23T05:26:37.629Z,85764.60
2022-09-23T05:29:07.034Z,85768.20
2022-09-23T05:31:36.710Z,85770.60
2022-09-23T05:34:07.713Z,85773.80
2022-09-23T05:36:39.241Z,85772.20
2022-09-23T05:39:09.804Z,85773.60
2022-09-23T05:41:39.740Z,85773.80
2022-09-23T05:44:08.990Z,85778.00
2022-09-23T05:46:38.522Z,85778.00
2022-09-23T05:49:08.467Z,85784.00
2022-09-23T05:51:37.754Z,85785.40
2022-09-23T05:54:07.686Z,85792.20
2022-09-23T05:56:38.282Z,85797.60
2022-09-23T05:59:07.975Z,85802.20
2022-09-23T06:01:39.515Z,85806.40
2022-09-23T06:04:13.165Z,85810.40
2022-09-23T06:06:44.233Z,85818.80
2022-09-23T06:09:16.132Z,85816.40
2022-09-23T06:11:45.579Z,85824.60
2022-09-23T06:14:15.992Z,85826.80
2022-09-23T06:16:45.254Z,85826.20
2022-09-23T06:19:15.053Z,85828.20
2022-09-23T06:21:44.168Z,85825.60
2022-09-23T06:24:16.984Z,85824.60
2022-09-23T06:26:47.263Z,85835.60
2022-09-23T06:29:16.748Z,85835.60
2022-09-23T06:31:46.145Z,85832.00
2022-09-23T06:34:16.082Z,85835.20
2022-09-23T06:36:48.758Z,85837.00
2022-09-23T06:39:18.541Z,85842.40
2022-09-23T06:41:48.136Z,85841.80
2022-09-23T06:44:17.327Z,85845.40
2022-09-23T06:46:46.542Z,85848.20
2022-09-23T06:49:15.894Z,85851.60
2022-09-23T06:51:45.014Z,85851.40
2022-09-23T06:54:14.655Z,85853.40
2022-09-23T06:56:48.495Z,85851.20
2022-09-23T06:59:18.032Z,85849.40
2022-09-23T07:01:49.180Z,85852.80
2022-09-23T07:04:18.415Z,85859.60
2022-09-23T07:06:47.820Z,85867.80
2022-09-23T07:09:17.174Z,85868.40
2022-09-23T07:11:48.749Z,85871.40
2022-09-23T07:14:18.381Z,85870.60
2022-09-23T07:16:51.670Z,85878.40
2022-09-23T07:19:20.866Z,85877.60
2022-09-23T07:21:50.439Z,85874.00
2022-09-23T07:24:19.691Z,85884.80
2022-09-23T07:26:49.985Z,85895.00
2022-09-23T07:29:19.291Z,85895.00
2022-09-23T07:31:48.395Z,85889.20
2022-09-23T07:34:17.724Z,85890.00
2022-09-23T07:36:46.787Z,85900.00
2022-09-23T07:39:16.170Z,85896.80
2022-09-23T07:41:45.635Z,85902.80
2022-09-23T07:44:14.785Z,85902.40
2022-09-23T07:46:44.389Z,85902.00
2022-09-23T07:49:14.721Z,85904.00
2022-09-23T07:51:47.231Z,85906.60
2022-09-23T07:54:19.473Z,85910.60
2022-09-23T07:56:49.610Z,85912.20
2022-09-23T07:59:20.595Z,85912.80
2022-09-23T08:01:56.234Z,85918.60
2022-09-23T08:04:32.610Z,85918.60
2022-09-23T08:07:05.757Z,85922.80
2022-09-23T08:09:42.833Z,85934.20
2022-09-23T08:12:17.025Z,85928.60
2022-09-23T08:14:46.714Z,85932.20
2022-09-23T08:17:16.273Z,85932.60
2022-09-23T08:19:45.371Z,85928.40
2022-09-23T08:22:14.555Z,85933.60
2022-09-23T08:24:44.067Z,85937.60
2022-09-23T08:27:13.692Z,85944.80
2022-09-23T08:29:42.981Z,85949.40
2022-09-23T08:32:12.281Z,85943.60
2022-09-23T08:34:42.705Z,85949.40
2022-09-23T08:37:15.879Z,85943.00
2022-09-23T08:39:45.693Z,85943.60
2022-09-23T08:42:28.729Z,85942.40
2022-09-23T08:45:05.546Z,85941.20
2022-09-23T08:47:51.645Z,85950.40
2022-09-23T08:50:43.664Z,85959.60
2022-09-23T08:53:51.817Z,85958.80
2022-09-23T08:56:26.181Z,85958.40
2022-09-23T08:59:22.195Z,85958.00
2022-09-23T09:02:01.330Z,85954.00
2022-09-23T09:04:45.457Z,85956.20
2022-09-23T09:07:41.513Z,85960.00
2022-09-23T09:10:27.829Z,85961.20
2022-09-23T09:13:08.656Z,85963.20
2022-09-23T09:15:49.546Z,85960.80
2022-09-23T09:18:24.019Z,85964.20
2022-09-23T09:21:14.328Z,85965.80
2022-09-23T09:23:59.564Z,85964.00
2022-09-23T09:26:35.574Z,85971.80
2022-09-23T09:29:35.059Z,85968.20
2022-09-23T09:32:26.539Z,85969.00
2022-09-23T09:35:10.814Z,85969.00
2022-09-23T09:37:49.067Z,85972.20
2022-09-23T09:40:21.411Z,85966.80
2022-09-23T09:42:52.634Z,85966.80
2022-09-23T09:46:09.881Z,85966.80
2022-09-23T09:49:02.055Z,85971.20
2022-09-23T09:51:31.941Z,85977.80
2022-09-23T09:54:27.091Z,85974.00
2022-09-23T09:56:57.368Z,85982.20
2022-09-23T09:59:30.767Z,85993.80
2022-09-23T10:02:25.539Z,85991.00
2022-09-23T10:05:08.222Z,85995.00
2022-09-23T10:07:37.869Z,85996.00
2022-09-23T10:10:36.615Z,86002.00
2022-09-23T10:13:21.074Z,86000.20
2022-09-23T10:15:50.944Z,86002.00
2022-09-23T10:18:40.629Z,86010.60
2022-09-23T10:21:27.706Z,86014.60
2022-09-23T10:24:01.930Z,86010.80
2022-09-23T10:26:34.337Z,86015.60
2022-09-23T10:29:32.005Z,86018.60
2022-09-23T10:32:38.652Z,86020.20
2022-09-23T10:35:11.728Z,86025.00
2022-09-23T10:37:52.148Z,86026.40
2022-09-23T10:41:03.303Z,86020.00
2022-09-23T10:44:15.175Z,86022.40
2022-09-23T10:47:15.803Z,86024.80
2022-09-23T10:50:59.477Z,86031.80
2022-09-23T10:54:09.266Z,86039.60
2022-09-23T10:57:02.477Z,86037.00
2022-09-23T11:00:05.787Z,86035.80
2022-09-23T11:03:03.934Z,86038.80
2022-09-23T11:06:03.649Z,86042.00
2022-09-23T11:08:57.014Z,86043.60
2022-09-23T11:11:57.206Z,86051.40
2022-09-23T11:15:08.612Z,86055.40
2022-09-23T11:18:17.806Z,86051.60
2022-09-23T11:21:15.554Z,86058.80
2022-09-23T11:24:29.207Z,86061.20
2022-09-23T11:27:49.880Z,86066.60
2022-09-23T11:30:22.425Z,86064.60
2022-09-23T11:33:32.865Z,86067.40
2022-09-23T11:36:33.916Z,86075.40
2022-09-23T11:39:16.145Z,86074.80
2022-09-23T11:41:48.169Z,86085.80
2022-09-23T11:44:32.542Z,86086.40
2022-09-23T11:47:20.669Z,86089.00
2022-09-23T11:50:00.554Z,86093.20
2022-09-23T11:52:37.481Z,86091.20
2022-09-23T11:55:22.982Z,86094.60
2022-09-23T11:58:15.881Z,86092.40
2022-09-23T12:01:08.393Z,86088.60
2022-09-23T12:03:49.687Z,86090.80
2022-09-23T12:07:02.382Z,86089.80
2022-09-23T12:10:01.391Z,86088.60
2022-09-23T12:13:31.592Z,86091.00
2022-09-23T12:16:36.660Z,86084.60
2022-09-23T12:19:56.561Z,86086.60
2022-09-23T12:23:07.675Z,86089.60
2022-09-23T12:26:03.460Z,86081.60
2022-09-23T12:28:46.165Z,86090.20
2022-09-23T12:31:23.776Z,86086.00
2022-09-23T12:33:55.694Z,86091.80
2022-09-23T12:36:40.592Z,86099.60
2022-09-23T12:39:31.849Z,86100.80
2022-09-23T12:42:04.616Z,86102.00
2022-09-23T12:44:43.097Z,86102.80
2022-09-23T12:47:29.265Z,86099.00
2022-09-23T12:49:59.215Z,86099.40
2022-09-23T12:52:36.819Z,86103.60
2022-09-23T12:55:24.583Z,86101.40
2022-09-23T12:57:54.144Z,86099.60
2022-09-23T13:00:33.538Z,86102.60
2022-09-23T13:03:22.511Z,86102.60
2022-09-23T13:06:20.685Z,86098.20
2022-09-23T13:08:54.526Z,86104.40
2022-09-23T13:11:34.571Z,86105.40
2022-09-23T13:14:08.078Z,86108.00
2022-09-23T13:16:47.079Z,86110.80
2022-09-23T13:19:28.285Z,86115.60
2022-09-23T13:22:08.925Z,86117.00
2022-09-23T13:24:45.876Z,86127.60
2022-09-23T13:27:20.744Z,86121.40
2022-09-23T13:30:25.059Z,86128.20
2022-09-23T13:33:24.064Z,86131.00
2022-09-23T13:36:00.297Z,86134.40
2022-09-23T13:38:33.178Z,86136.60
2022-09-23T13:41:09.276Z,86145.40
2022-09-23T13:44:06.815Z,86144.40
2022-09-23T13:46:55.133Z,86143.80
2022-09-23T13:49:33.701Z,86147.80
2022-09-23T13:52:07.888Z,86152.60
2022-09-23T13:54:51.991Z,86144.20
2022-09-23T13:57:39.012Z,86142.00
2022-09-23T14:00:22.674Z,86154.60
2022-09-23T14:02:54.072Z,86154.00
2022-09-23T14:05:28.215Z,86160.20
2022-09-23T14:07:58.882Z,86162.40
2022-09-23T14:10:29.457Z,86169.00
2022-09-23T14:13:00.614Z,86177.00
2022-09-23T14:15:31.588Z,86176.20
2022-09-23T14:18:08.242Z,86180.20
2022-09-23T14:20:51.323Z,86182.20
2022-09-23T14:23:21.180Z,86185.20
2022-09-23T14:25:52.676Z,86189.00
2022-09-23T14:28:28.570Z,86187.80
2022-09-23T14:30:59.726Z,86191.40
2022-09-23T14:33:34.276Z,86192.80
2022-09-23T14:36:35.992Z,86193.40
2022-09-23T14:39:10.585Z,86198.80
2022-09-23T14:41:44.879Z,86208.60
2022-09-23T14:44:40.347Z,86213.20
2022-09-23T14:47:16.450Z,86219.60
2022-09-23T14:50:12.049Z,86218.80
2022-09-23T14:52:55.544Z,86223.00
2022-09-23T14:55:32.558Z,86231.60
2022-09-23T14:58:14.697Z,86238.00
2022-09-23T15:01:01.662Z,86241.40
2022-09-23T15:03:31.040Z,86241.80
2022-09-23T15:06:10.245Z,86246.20
2022-09-23T15:08:39.868Z,86252.40
2022-09-23T15:11:10.031Z,86243.40
2022-09-23T15:13:48.110Z,86244.80
2022-09-23T15:16:31.015Z,86247.20
2022-09-23T15:19:02.819Z,86254.80
2022-09-23T15:21:45.229Z,86260.60
2022-09-23T15:24:47.144Z,86258.20
2022-09-23T15:27:34.344Z,86253.00
2022-09-23T15:30:21.027Z,86249.00
2022-09-23T15:32:50.515Z,86244.40
2022-09-23T15:35:26.708Z,86248.40
2022-09-23T15:38:01.549Z,86249.00
2022-09-23T15:40:37.483Z,86255.00
2022-09-23T15:43:28.023Z,86252.40
2022-09-23T15:46:08.930Z,86245.60
2022-09-23T15:48:58.871Z,86250.80
2022-09-23T15:51:30.312Z,86259.60
2022-09-23T15:53:59.998Z,86258.60
2022-09-23T15:56:28.874Z,86257.40
2022-09-23T15:58:58.578Z,86256.00
2022-09-23T16:01:32.985Z,86259.80
2022-09-23T16:04:05.694Z,86265.40
2022-09-23T16:06:37.052Z,86254.00
2022-09-23T16:09:06.508Z,86248.00
2022-09-23T16:11:36.912Z,86255.20
2022-09-23T16:14:06.474Z,86245.80
2022-09-23T16:16:35.709Z,86250.60
2022-09-23T16:19:04.967Z,86258.40
2022-09-23T16:21:34.988Z,86254.80
2022-09-23T16:24:05.431Z,86258.60
2022-09-23T16:26:41.419Z,86264.60
2022-09-23T16:29:12.661Z,86261.00
2022-09-23T16:31:42.460Z,86261.80
2022-09-23T16:34:11.955Z,86264.20
2022-09-23T16:36:44.598Z,86262.60
2022-09-23T16:39:15.505Z,86266.20
2022-09-23T16:41:44.920Z,86265.00
2022-09-23T16:44:15.370Z,86268.80
2022-09-23T16:46:44.622Z,86275.00
2022-09-23T16:49:13.888Z,86270.60
2022-09-23T16:51:43.061Z,86264.60
2022-09-23T16:54:14.477Z,86269.40
2022-09-23T16:56:46.172Z,86269.00
2022-09-23T16:59:17.794Z,86268.60
2022-09-23T17:02:05.485Z,86268.20
2022-09-23T17:04:35.095Z,86273.00
2022-09-23T17:07:04.450Z,86275.60
2022-09-23T17:09:34.099Z,86267.60
2022-09-23T17:12:28.855Z,86273.80
2022-09-23T17:14:57.928Z,86276.80
2022-09-23T17:17:28.869Z,86274.60
2022-09-23T17:19:58.054Z,86271.00
2022-09-23T17:22:27.263Z,86282.20
2022-09-23T17:25:06.407Z,86274.00
2022-09-23T17:27:36.665Z,86281.60
2022-09-23T17:30:07.476Z,86280.00
2022-09-23T17:32:36.530Z,86283.20
2022-09-23T17:35:06.010Z,86291.00
2022-09-23T17:37:35.881Z,86293.00
2022-09-23T17:40:06.788Z,86283.40
2022-09-23T17:42:40.335Z,86292.40
2022-09-23T17:45:13.480Z,86295.40
2022-09-23T17:47:43.283Z,86296.60
2022-09-23T17:50:12.375Z,86295.60
2022-09-23T17:52:41.471Z,86294.20
2022-09-23T17:55:13.248Z,86294.00
2022-09-23T17:57:42.551Z,86302.00
2022-09-23T18:00:12.784Z,86298.60
2022-09-23T18:02:41.982Z,86293.00
2022-09-23T18:05:11.452Z,86293.80
2022-09-23T18:07:41.019Z,86293.00
2022-09-23T18:10:11.196Z,86279.60
2022-09-23T18:12:40.422Z,86282.40
2022-09-23T18:15:09.963Z,86281.00
2022-09-23T18:17:39.149Z,86285.00
2022-09-23T18:20:09.438Z,86288.20
2022-09-23T18:22:38.714Z,86286.40
2022-09-23T18:25:28.514Z,86281.40
2022-09-23T18:27:57.759Z,86281.00
2022-09-23T18:30:28.278Z,86280.60
2022-09-23T18:32:57.324Z,86279.60
2022-09-23T18:35:27.189Z,86275.60
2022-09-23T18:37:57.055Z,86279.20
2022-09-23T18:40:26.189Z,86282.60
2022-09-23T18:42:55.558Z,86286.20
2022-09-23T18:45:24.825Z,86280.00
2022-09-23T18:48:12.829Z,86280.40
2022-09-23T18:50:44.099Z,86285.60
2022-09-23T18:53:13.506Z,86274.80
2022-09-23T18:55:43.904Z,86267.60
2022-09-23T18:58:14.299Z,86268.40
2022-09-23T19:00:43.750Z,86266.60
2022-09-23T19:03:13.124Z,86266.20
2022-09-23T19:05:42.408Z,86266.80
2022-09-23T19:08:11.693Z,86266.20
2022-09-23T19:10:41.045Z,86268.80
2022-09-23T19:13:10.317Z,86264.60
2022-09-23T19:15:39.729Z,86267.20
2022-09-23T19:18:09.007Z,86270.80
2022-09-23T19:20:38.229Z,86271.40
2022-09-23T19:23:07.828Z,86268.00
2022-09-23T19:25:38.534Z,86273.20
2022-09-23T19:28:09.311Z,86275.20
2022-09-23T19:30:39.910Z,86266.40
2022-09-23T19:33:10.989Z,86270.80
2022-09-23T19:35:52.898Z,86274.20
2022-09-23T19:38:22.565Z,86273.80
2022-09-23T19:40:56.110Z,86272.00
2022-09-23T19:43:26.173Z,86267.80
2022-09-23T19:45:58.772Z,86275.40
2022-09-23T19:48:28.155Z,86270.40
2022-09-23T19:50:57.470Z,86274.80
2022-09-23T19:53:29.544Z,86266.60
2022-09-23T19:55:59.006Z,86261.20
2022-09-23T19:58:28.348Z,86262.20
2022-09-23T20:00:57.937Z,86256.00
2022-09-23T20:03:28.024Z,86258.20
2022-09-23T20:06:01.099Z,86256.00
2022-09-23T20:08:30.284Z,86246.40
2022-09-23T20:10:59.633Z,86246.80
2022-09-23T20:13:29.945Z,86239.00
2022-09-23T20:16:00.578Z,86243.80
2022-09-23T20:18:30.982Z,86244.80
2022-09-23T20:20:59.981Z,86247.80
2022-09-23T20:23:30.697Z,86246.20
2022-09-23T20:26:23.943Z,86243.00
2022-09-23T20:28:53.354Z,86240.60
2022-09-23T20:31:24.241Z,86236.80
2022-09-23T20:33:58.373Z,86236.20
2022-09-23T20:36:30.147Z,86234.40
2022-09-23T20:39:05.194Z,86231.60
2022-09-23T20:41:38.522Z,86236.20
2022-09-23T20:44:13.544Z,86236.60
2022-09-23T20:46:48.497Z,86242.00
2022-09-23T20:49:21.869Z,86241.20
2022-09-23T20:51:51.486Z,86245.00
2022-09-23T20:54:21.160Z,86248.60
2022-09-23T20:56:50.730Z,86248.20
2022-09-23T20:59:20.309Z,86253.00
2022-09-23T21:01:54.863Z,86255.80
2022-09-23T21:04:28.230Z,86255.00
2022-09-23T21:06:59.149Z,86252.00
2022-09-23T21:09:32.013Z,86254.00
2022-09-23T21:12:01.394Z,86256.40
2022-09-23T21:14:32.412Z,86258.20
2022-09-23T21:17:01.844Z,86263.40
2022-09-23T21:19:31.381Z,86258.20
2022-09-23T21:22:00.861Z,86259.40
2022-09-23T21:25:25.699Z,86257.00
2022-09-23T21:27:20.442Z,86255.80
2022-09-23T21:29:49.630Z,86250.20
2022-09-23T21:32:18.874Z,86261.40
2022-09-23T21:34:49.421Z,86260.20
2022-09-23T21:37:19.473Z,86255.80
2022-09-23T21:40:08.669Z,86260.80
2022-09-23T21:42:37.837Z,86260.80
2022-09-23T21:45:08.186Z,86261.60
2022-09-23T21:47:37.370Z,86265.60
2022-09-23T21:50:07.306Z,86261.20
2022-09-23T21:52:37.226Z,86261.00
2022-09-23T21:55:06.938Z,86261.40
2022-09-23T21:57:36.384Z,86258.40
2022-09-23T22:00:08.378Z,86265.00
2022-09-23T22:02:40.855Z,86261.60
2022-09-23T22:05:10.390Z,86264.00
2022-09-23T22:07:39.764Z,86256.40
2022-09-23T22:10:09.646Z,86259.80
2022-09-23T22:12:39.041Z,86256.00
2022-09-23T22:15:09.114Z,86263.20
2022-09-23T22:17:38.095Z,86268.60
2022-09-23T22:20:08.372Z,86268.20
2022-09-23T22:22:37.870Z,86268.20
2022-09-23T22:25:07.937Z,86264.40
2022-09-23T22:27:56.937Z,86268.80
2022-09-23T22:30:44.392Z,86266.80
2022-09-23T22:33:18.166Z,86271.80
2022-09-23T22:35:47.595Z,86273.20
2022-09-23T22:38:17.436Z,86270.40
2022-09-23T22:40:46.910Z,86274.60
2022-09-23T22:43:16.381Z,86271.40
2022-09-23T22:45:52.742Z,86276.80
2022-09-23T22:48:22.156Z,86287.60
2022-09-23T22:50:51.362Z,86289.20
2022-09-23T22:53:21.264Z,86293.00
2022-09-23T22:56:06.034Z,86291.60
2022-09-23T22:58:35.526Z,86288.60
2022-09-23T23:01:04.648Z,86282.80
2022-09-23T23:03:36.232Z,86285.20
2022-09-23T23:06:06.733Z,86287.20
2022-09-23T23:08:37.240Z,86284.40
2022-09-23T23:11:11.118Z,86284.00
2022-09-23T23:13:44.954Z,86278.00
2022-09-23T23:16:14.934Z,86283.80
2022-09-23T23:18:46.749Z,86286.60
2022-09-23T23:21:18.349Z,86289.80
2022-09-23T23:23:51.621Z,86284.80
2022-09-23T23:26:30.425Z,86283.80
2022-09-23T23:29:00.747Z,86286.80
2022-09-23T23:31:33.097Z,86288.20
2022-09-23T23:34:02.442Z,86287.80
2022-09-23T23:36:32.172Z,86285.60
2022-09-23T23:39:01.714Z,86286.80
2022-09-23T23:41:31.272Z,86292.80
2022-09-23T23:44:02.074Z,86283.00
2022-09-23T23:46:33.664Z,86290.60
2022-09-23T23:49:03.021Z,86290.80
2022-09-23T23:51:32.290Z,86290.60
2022-09-23T23:54:02.047Z,86282.80
2022-09-23T23:56:35.472Z,86280.80
2022-09-23T23:59:05.995Z,86285.60
